Latest Weather Observations for Albany Airport

IDW60801

Issued at 9:32 pm WST Saturday 6 February 2016 (issued every 30 minutes, with the page automatically refreshed every 10 minutes)

About weather observations | Map of weather stations | Latest weather observations for WA | Other Formats
Station Details ID: 009999 Name: ALBANY AIRPORT Lat: -34.94 Lon: 117.82 Height: 68.4 m
Data from the previous 72 hours. | See also: Recent months at Albany Airport
Date/Time
WST
Temp
°C
App
Temp
°C
Dew
Point
Rel
Hum
%
Delta-T
°C
Wind Press
QNH
hPa
Press
MSL
hPa
Rain
since 9 am
mm
Dir
 
Spd
km/h
Gust
km/h
Spd
kts
Gust
kts
06/09:30pm 18.0 15.8 13.4 74 2.6 ESE 17 22 9 12 1021.1 - 0.0
06/09:00pm 18.1 16.8 13.7 75 2.5 SE 13 20 7 11 1021.0 1020.9 0.0
06/08:30pm 18.0 16.8 14.0 77 2.3 SE 13 17 7 9 1021.0 - 0.0
06/08:00pm 18.0 16.5 14.2 78 2.2 SE 15 19 8 10 1020.6 - 0.0
06/07:30pm 18.1 15.7 13.9 76 2.4 SE 19 24 10 13 1020.4 - 0.0
06/07:00pm 18.3 15.7 13.9 75 2.5 ESE 20 24 11 13 1020.2 - 0.0
06/06:30pm 18.5 16.0 14.0 75 2.6 SE 20 26 11 14 1019.9 - 0.0
06/06:00pm 18.8 16.2 13.9 73 2.8 ESE 20 26 11 14 1019.6 1019.5 0.0
06/05:30pm 19.0 17.0 13.8 72 3.0 SE 17 24 9 13 1019.3 - 0.0
06/05:00pm 19.3 16.9 13.7 70 3.2 SSE 19 26 10 14 1019.1 - 0.0
06/04:30pm 19.5 17.2 14.1 71 3.1 SSE 19 30 10 16 1018.9 - 0.0
06/04:00pm 19.9 17.4 14.2 69 3.3 SSE 20 26 11 14 1018.9 - 0.0
06/03:30pm 20.3 17.9 14.3 68 3.5 SE 20 28 11 15 1018.9 - 0.0
06/03:00pm 20.7 18.5 14.5 67 3.6 SE 19 26 10 14 1018.8 1018.7 0.0
06/02:30pm 20.9 19.2 14.8 68 3.6 SSE 17 24 9 13 1018.8 - 0.0
06/02:00pm 21.7 19.9 14.5 63 4.2 SSE 17 22 9 12 1018.7 - 0.0
06/01:30pm 21.0 19.6 14.5 66 3.8 SE 15 22 8 12 1018.8 - 0.0
06/01:00pm 21.4 20.4 14.6 65 4.0 SSE 13 19 7 10 1018.9 - 0.0
06/12:30pm 21.4 20.0 14.6 65 4.0 SE 15 20 8 11 1018.9 - 0.0
06/12:00pm 20.7 19.0 14.7 68 3.5 SE 17 22 9 12 1019.2 1019.1 0.0
06/11:30am 20.9 19.2 14.6 67 3.7 SSE 17 24 9 13 1019.4 - 0.0
06/11:00am 20.3 18.7 15.0 71 3.1 SSE 17 24 9 13 1019.6 - 0.0
06/10:30am 20.2 18.6 14.9 71 3.1 S 17 24 9 13 1019.6 - 0.0
06/10:00am 20.5 18.8 13.7 65 3.9 S 15 22 8 12 1019.5 - 0.0
06/09:30am 20.3 19.3 14.5 69 3.4 SE 13 19 7 10 1019.4 - 0.0
06/09:00am 19.6 18.2 14.6 73 2.9 SSE 15 19 8 10 1019.1 1019.0 0.0
06/08:30am 19.6 19.5 15.9 79 2.2 S 11 15 6 8 1018.9 - 0.0
06/08:00am 18.7 18.1 15.7 83 1.8 SE 13 17 7 9 1018.9 - 0.0
06/07:30am 17.9 18.6 16.0 89 1.1 SSE 7 11 4 6 1018.7 - 0.0
06/07:00am 17.6 18.5 16.1 91 0.9 SSE 6 9 3 5 1018.6 - 0.0
06/06:30am 15.9 16.3 15.2 96 0.4 S 7 9 4 5 1018.5 - 0.0
06/06:00am 14.3 13.8 13.9 97 0.2 SSW 9 9 5 5 1018.2 1018.1 0.0
06/05:30am 13.3 13.9 13.1 99 0.1 S 2 7 1 4 1017.9 - 0.0
06/05:00am 14.3 15.5 13.9 97 0.2 CALM 0 0 0 0 1017.2 - 0.0
06/04:30am 14.4 15.7 14.0 97 0.2 CALM 0 0 0 0 1017.1 - 0.0
06/04:19am 14.7 16.1 14.5 99 0.1 CALM 0 0 0 0 1017.0 - 0.0
06/04:00am 15.2 16.8 15.0 99 0.1 CALM 0 0 0 0 1017.1 - 0.0
06/03:30am 16.0 16.7 15.5 97 0.3 S 6 6 3 3 1017.2 - 0.0
06/03:00am 15.7 16.1 15.2 97 0.3 S 7 9 4 5 1017.4 1017.3 0.0
06/02:30am 15.0 14.8 14.6 97 0.2 SSW 9 11 5 6 1017.6 - 0.0
06/02:00am 15.1 15.6 14.9 99 0.1 SW 6 7 3 4 1017.4 - 0.0
06/01:33am 15.1 15.9 14.8 98 0.2 SW 4 9 2 5 1017.5 - 0.0
06/01:30am 15.2 16.4 14.9 98 0.2 SW 2 7 1 4 1017.4 - 0.0
06/01:11am 15.1 16.7 14.8 98 0.2 CALM 0 0 0 0 1017.3 - 0.0
06/01:00am 15.6 16.1 15.1 97 0.3 SW 6 7 3 4 1017.3 - 0.0
06/12:30am 16.0 16.7 15.7 98 0.2 SSW 6 7 3 4 1017.3 - 0.0
06/12:17am 16.2 16.8 15.9 98 0.2 SSW 7 9 4 5 1017.3 - 0.0
06/12:00am 16.1 16.7 15.9 99 0.1 SSW 7 9 4 5 1017.3 1017.2 0.0
 
Date/Time
WST
Temp
°C
App
Temp
°C
Dew
Point
Rel
Hum
%
Delta-T
°C
Wind Press
QNH
hPa
Press
MSL
hPa
Rain
since 9 am
mm
Dir
 
Spd
km/h
Gust
km/h
Spd
kts
Gust
kts
05/11:46pm 16.0 16.6 15.7 98 0.2 SSW 7 9 4 5 1017.2 - 0.0
05/11:30pm 15.6 15.6 15.3 98 0.2 SW 9 11 5 6 1017.2 - 0.0
05/11:00pm 15.6 17.3 15.3 98 0.2 CALM 0 0 0 0 1017.2 - 0.0
05/10:30pm 17.1 18.1 16.4 96 0.4 SW 6 7 3 4 1017.2 - 0.0
05/10:00pm 16.8 17.2 16.3 97 0.3 SSW 9 11 5 6 1017.7 - 0.0
05/09:30pm 17.0 17.9 16.5 97 0.3 SSW 7 9 4 5 1017.7 - 0.0
05/09:00pm 17.2 17.7 16.5 96 0.4 SSW 9 11 5 6 1017.5 1017.4 0.0
05/08:30pm 17.1 17.8 16.1 94 0.6 SSW 7 13 4 7 1017.0 - 0.0
05/08:00pm 18.4 19.6 16.9 91 0.9 S 6 7 3 4 1016.5 - 0.0
05/07:30pm 19.1 18.9 16.8 86 1.4 SSW 13 15 7 8 1016.5 - 0.0
05/07:00pm 20.5 20.6 16.4 77 2.5 S 11 15 6 8 1016.2 - 0.0
05/06:30pm 21.6 21.2 16.3 72 3.2 S 13 20 7 11 1015.9 - 0.0
05/06:00pm 22.5 21.5 15.5 64 4.2 S 15 20 8 11 1015.5 1015.4 0.0
05/05:30pm 23.3 22.0 15.7 62 4.6 SSW 17 20 9 11 1015.3 - 0.0
05/05:00pm 23.6 22.7 15.8 61 4.7 SSW 15 22 8 12 1015.1 - 0.0
05/04:30pm 23.8 21.4 15.3 59 5.1 SSW 22 28 12 15 1015.1 - 0.0
05/04:00pm 24.4 22.6 15.5 57 5.4 S 19 24 10 13 1015.1 - 0.0
05/03:30pm 25.4 22.8 14.9 52 6.3 S 22 32 12 17 1015.0 - 0.0
05/03:00pm 26.2 23.7 14.1 47 7.2 SSW 20 30 11 16 1014.8 1014.7 0.0
05/02:30pm 27.0 23.2 13.7 44 7.9 SSW 26 35 14 19 1014.4 - 0.0
05/02:00pm 27.2 22.8 12.9 41 8.4 SSW 28 33 15 18 1014.5 - 0.0
05/01:30pm 29.4 26.1 12.8 36 9.8 SSW 22 30 12 16 1014.3 - 0.0
05/01:00pm 28.9 25.3 13.0 37 9.4 SSW 24 35 13 19 1014.5 - 0.0
05/12:30pm 27.5 22.2 12.6 39 8.7 SSW 32 43 17 23 1014.7 - 0.0
05/12:00pm 28.0 23.5 13.7 41 8.5 SSW 30 39 16 21 1014.5 1014.4 0.0
05/11:30am 33.1 29.2 7.3 20 14.2 NW 17 32 9 17 1014.4 - 0.0
05/11:00am 32.5 28.4 8.0 22 13.6 N 19 24 10 13 1014.6 - 0.0
05/10:30am 31.7 27.1 8.3 23 13.0 NW 22 30 12 16 1014.8 - 0.0
05/10:00am 30.6 26.6 8.9 26 12.1 NNW 20 28 11 15 1015.1 - 0.0
05/09:30am 29.3 25.0 9.2 28 11.2 N 22 30 12 16 1015.3 - 0.0
05/09:00am 27.7 24.7 10.5 34 9.7 NNW 17 26 9 14 1015.6 1015.5 0.2
05/08:30am 25.1 22.6 12.4 45 7.3 N 17 20 9 11 1015.7 - 0.2
05/08:00am 23.5 22.5 13.5 53 5.8 N 11 15 6 8 1016.2 - 0.2
05/07:30am 18.4 19.6 13.9 75 2.6 CALM 0 0 0 0 1016.2 - 0.2
05/07:00am 16.7 16.9 14.1 85 1.5 NNE 6 7 3 4 1015.9 - 0.2
05/06:30am 15.2 15.4 14.1 93 0.6 NE 6 7 3 4 1015.8 - 0.2
05/06:00am 13.2 12.7 12.6 96 0.3 NE 7 9 4 5 1015.8 1015.7 0.2
05/05:30am 13.4 12.5 12.5 94 0.5 NE 9 11 5 6 1015.7 - 0.2
05/05:00am 13.6 13.2 12.9 95 0.4 ENE 7 9 4 5 1015.7 - 0.2
05/04:30am 14.3 13.6 13.2 93 0.6 ENE 9 11 5 6 1015.4 - 0.2
05/04:00am 14.8 13.4 13.5 92 0.7 ENE 13 15 7 8 1015.3 - 0.2
05/03:30am 15.2 13.5 13.6 90 0.9 ENE 15 17 8 9 1015.5 - 0.2
05/03:00am 15.8 14.2 14.0 89 1.0 ENE 15 22 8 12 1015.7 1015.6 0.2
05/02:30am 16.0 14.1 14.1 88 1.1 ENE 17 26 9 14 1016.0 - 0.2
05/02:00am 16.1 14.3 14.5 90 0.9 NE 17 26 9 14 1016.4 - 0.2
05/01:30am 16.1 14.4 14.7 91 0.8 NE 17 20 9 11 1016.7 - 0.2
05/01:00am 15.9 14.1 14.5 91 0.8 NE 17 24 9 13 1017.0 - 0.2
05/12:30am 16.2 14.0 14.5 90 1.0 ENE 19 20 10 11 1017.4 - 0.2
05/12:00am 16.3 14.6 14.6 90 1.0 ENE 17 24 9 13 1017.7 1017.6 0.2
 
Date/Time
WST
Temp
°C
App
Temp
°C
Dew
Point
Rel
Hum
%
Delta-T
°C
Wind Press
QNH
hPa
Press
MSL
hPa
Rain
since 9 am
mm
Dir
 
Spd
km/h
Gust
km/h
Spd
kts
Gust
kts
04/11:30pm 16.7 14.4 14.6 87 1.2 NE 20 28 11 15 1017.9 - 0.2
04/11:00pm 16.8 15.1 14.7 87 1.2 NE 17 20 9 11 1018.1 - 0.2
04/10:30pm 17.0 15.0 14.9 87 1.2 ENE 19 24 10 13 1018.3 - 0.2
04/10:00pm 17.2 15.6 15.1 87 1.2 ENE 17 20 9 11 1018.6 - 0.2
04/09:30pm 17.3 15.7 15.1 87 1.3 ENE 17 22 9 12 1018.7 - 0.2
04/09:00pm 17.4 15.7 14.8 85 1.5 E 17 24 9 13 1019.0 1018.9 0.2
04/08:30pm 17.8 15.6 14.5 81 1.9 ENE 19 26 10 14 1019.0 - 0.2
04/08:00pm 18.1 16.5 13.9 76 2.4 E 15 19 8 10 1018.8 - 0.2
04/07:30pm 19.0 16.5 13.6 71 3.1 E 19 24 10 13 1018.9 - 0.2
04/07:00pm 20.3 17.0 12.7 61 4.3 E 22 28 12 15 1018.9 - 0.2
04/06:30pm 21.6 19.0 13.2 59 4.8 E 19 26 10 14 1018.7 - 0.2
04/06:00pm 22.8 20.0 13.3 55 5.5 E 20 28 11 15 1018.5 1018.4 0.2
04/05:30pm 23.3 20.1 14.3 57 5.3 ESE 24 30 13 16 1018.3 - 0.2
04/05:00pm 24.0 21.2 14.2 54 5.8 ESE 22 30 12 16 1018.3 - 0.2
04/04:30pm 24.4 21.0 13.8 51 6.2 ESE 24 33 13 18 1018.3 - 0.2
04/04:00pm 24.3 20.5 13.7 51 6.2 ESE 26 33 14 18 1018.2 - 0.2
04/03:30pm 25.2 21.0 13.6 48 6.8 ESE 28 35 15 19 1018.3 - 0.2
04/03:00pm 26.1 22.0 13.7 46 7.3 E 28 33 15 18 1018.1 1018.0 0.0
04/02:30pm 25.9 21.5 12.8 44 7.6 ESE 28 33 15 18 1018.3 - 0.0
04/02:00pm 26.5 22.9 13.0 43 7.9 ESE 24 30 13 16 1018.6 - 0.0
04/01:30pm 26.4 22.9 13.3 44 7.7 ESE 24 32 13 17 1019.0 - 0.0
04/01:00pm 26.9 25.5 9.5 33 9.6 SSE 7 20 4 11 1019.4 - 0.0
04/12:30pm 25.5 23.0 8.1 33 9.3 ENE 11 19 6 10 1019.8 - 0.0
04/12:00pm 26.0 24.0 10.2 37 8.8 NE 11 20 6 11 1020.3 1020.2 0.0
04/11:30am 25.3 22.8 9.6 37 8.6 ENE 13 24 7 13 1020.7 - 0.0
04/11:00am 24.5 21.2 9.7 39 8.1 NE 17 26 9 14 1021.3 - 0.0
04/10:30am 23.2 20.2 10.7 45 6.9 ENE 17 26 9 14 1021.7 - 0.0
04/10:00am 22.7 19.9 11.2 48 6.4 ENE 17 30 9 16 1022.1 - 0.0
04/09:30am 21.8 18.4 11.1 50 5.9 ENE 20 28 11 15 1022.3 - 0.0
04/09:00am 20.9 16.9 11.9 56 5.0 ENE 24 32 13 17 1022.7 1022.6 0.2
04/08:30am 19.4 15.5 12.2 63 4.0 ENE 24 35 13 19 1022.9 - 0.2
04/08:00am 18.5 15.3 13.2 71 3.0 ENE 22 30 12 16 1023.0 - 0.2
04/07:30am 17.1 14.5 13.2 78 2.2 NE 19 26 10 14 1023.1 - 0.2
04/07:00am 15.5 13.2 13.0 85 1.4 NE 17 24 9 13 1023.0 - 0.2
04/06:30am 14.2 11.7 12.4 89 1.0 NE 17 20 9 11 1022.9 - 0.2
04/06:00am 12.7 10.8 11.8 94 0.5 NE 13 15 7 8 1022.9 1022.8 0.2
04/05:30am 11.9 10.2 11.1 95 0.4 ENE 11 15 6 8 1023.0 - 0.2
04/05:00am 11.8 10.4 11.0 95 0.4 ENE 9 11 5 6 1022.7 - 0.2
04/04:30am 12.0 10.3 11.2 95 0.4 ENE 11 13 6 7 1022.6 - 0.2
04/04:00am 11.9 10.6 11.3 96 0.3 ENE 9 13 5 7 1022.5 - 0.2
04/03:30am 12.2 10.6 11.4 95 0.4 ENE 11 13 6 7 1022.3 - 0.2
04/03:00am 12.1 10.5 11.5 96 0.3 ENE 11 13 6 7 1022.3 1022.2 0.2
04/02:30am 12.1 10.5 11.5 96 0.3 ENE 11 13 6 7 1022.3 - 0.2
04/02:00am 11.9 10.3 11.5 97 0.2 ENE 11 13 6 7 1022.3 - 0.2
04/01:30am 12.2 11.0 11.6 96 0.3 ENE 9 11 5 6 1022.6 - 0.2
04/01:00am 12.2 10.9 11.4 95 0.4 ENE 9 11 5 6 1022.8 - 0.2
04/12:30am 12.7 11.9 11.8 94 0.5 E 7 11 4 6 1022.9 - 0.2
04/12:00am 12.6 11.0 11.5 93 0.6 ENE 11 11 6 6 1023.0 1022.9 0.2
 
Date/Time
WST
Temp
°C
App
Temp
°C
Dew
Point
Rel
Hum
%
Delta-T
°C
Wind Press
QNH
hPa
Press
MSL
hPa
Rain
since 9 am
mm
Dir
 
Spd
km/h
Gust
km/h
Spd
kts
Gust
kts
03/11:30pm 13.5 12.4 11.8 89 0.9 E 9 11 5 6 1023.3 - 0.2
03/11:00pm 13.5 11.9 11.6 88 1.0 ENE 11 13 6 7 1023.3 - 0.2
03/10:30pm 14.2 12.3 11.8 85 1.3 E 13 17 7 9 1023.5 - 0.2
03/10:00pm 13.5 11.9 11.4 87 1.1 ENE 11 13 6 7 1023.7 - 0.2

Other Formats:

Comma delimited format used in spreadsheet applications
http://www.bom.gov.au/fwo/IDW60801/IDW60801.94802.axf

JavaScript Object Notation format (JSON) in row-major order
http://www.bom.gov.au/fwo/IDW60801/IDW60801.94802.json